• Join FlightAware (Why Join?)
  • Login
  • US Flag 
04:12AM EDT


 

Airport Tracker/Info


-or-


 

Live Flight TrackerFlight Track Log ✈ EJM826 ✈ 31-Jul-2013 ✈ KSAT - KHOU

Flight Track Log - Related Links

Times and Time Zones

All times are in EDT time to prevent confusion due to time zone crossing. See the EJM826 flight status page for this flight to view local times or setup timezone preferences in your user account.

Time Position Orientation Groundspeed Altitude Reporting Facility
EDT Latitude Longitude Course Direction KTS MPH feet Rate Location/Type
07:43PM 29.5022 -98.4222 122° Southeast 180 207 3,400  Level Houston Center
07:44PM 29.4967 -98.3578 96° East 219 252 6,100 2,280 Climbing Houston Center
07:45PM 29.5239 -98.2742 69° East 266 306 8,200 2,220 Climbing Houston Center
07:46PM 29.5486 -98.1850 72° East 290 334 10,800 2,460 Climbing Houston Center
07:47PM 29.5636 -98.0842 80° East 305 351 13,400 2,340 Climbing Houston Center
07:48PM 29.5461 -97.9867 102° East 313 360 15,600 2,040 Climbing Houston Center
07:49PM 29.5317 -97.8853 99° East 322 371 17,600 1,860 Climbing Houston Center
07:50PM 29.5206 -97.7706 96° East 343 395 19,500 1,800 Climbing Houston Center
07:51PM 29.5081 -97.6617 97° East 346 398 21,400 1,860 Climbing Houston Center
07:52PM 29.4956 -97.5533 98° East 344 396 23,400 1,920 Climbing Houston Center
07:53PM 29.4819 -97.4450 98° East 344 396 25,400 1,860 Climbing Houston Center
07:54PM 29.4686 -97.3372 98° East 343 395 27,300 1,860 Climbing Houston Center
07:55PM 29.4561 -97.2322 98° East 336 387 29,300 1,680 Climbing Houston Center
07:56PM 29.4428 -97.1269 98° East 332 382 30,800 240 Climbing Houston Center
07:57PM 29.4261 -96.9850 98° East 377 434 29,900 -1,500 Descending Houston Center
07:58PM 29.4092 -96.8642 99° East 441 507 27,800 -2,760 Descending Houston Center
07:59PM 29.3881 -96.6828 98° East 463 533 24,300 -3,120 Descending Houston Center
08:00PM 29.3692 -96.5453 99° East 439 505 21,500 -2,760 Descending Houston Center
08:01PM 29.3531 -96.4150 98° East 418 481 18,700 -2,760 Descending Houston Center
08:02PM 29.3361 -96.2889 99° East 403 464 15,900 -2,760 Descending Houston Center
08:03PM 29.3200 -96.1706 99° East 379 436 13,000 -1,980 Descending Houston Center
08:04PM 29.3072 -96.0622 98° East 346 398 11,900 -660 Descending Houston Center
08:05PM 29.3622 -95.9756 54° Northeast 309 356 11,700 -1,020 Descending Houston Center
08:06PM 29.4236 -95.9111 42° Northeast 301 346 9,900 -1,860 Descending Houston Center
08:07PM 29.4825 -95.8489 43° Northeast 292 336 7,900 -1,860 Descending Houston Center
08:08PM 29.5383 -95.7900 43° Northeast 276 318 6,100 -960 Descending Houston Center
08:10PM 29.5800 -95.7161 57° Northeast 278 320 6,000 -60 Descending Houston Center
08:11PM 29.6131 -95.6344 65° Northeast 281 323 6,000 -780 Level Houston Center
08:12PM 29.6444 -95.5533 66° East 279 321 4,500 -1,560 Descending Houston Center
08:13PM 29.6753 -95.4733 66° East 275 316 2,800 -1,260 Descending Houston Center
08:14PM 29.7092 -95.3867 66° East 250 288 2,000 -780 Descending Houston Center
08:15PM 29.6969 -95.3375 106° East 194 223 1,300 -720 Descending Houston Center
08:16PM 29.6856 -95.2894 105° East 167 192 600 5,160 Descending Houston Center
08:17PM 29.6525 -95.2850 173° South 136 157 12,000 10,980 Climbing Houston Center
08:19PM 29.6454 -95.2789 115° Southeast  Level Estimated